Bloomingburg, NY

5:35 AM EDT on May 06, 2015 (GMT -0400)
Sussex | | Change Station
CLOSE
Current Station
Airport
Location: Sussex,
Elevation: 420 ft
Nearby Weather Stations

Elev 420 ft 41.20 °N, 74.63 °W | Updated 42 minutes ago

Overcast
Overcast
63 °F
Feels Like 63 °F
N
6
Wind Variable Wind from Variable

Today
High -- | Low -- °F
--% Chance of Precip.
Yesterday
High -- | Low -- °F
Precip. -- in
5:48 AM 8:00 PM
Waning Gibbous, 95% visible
Pressure 30.24 in
Visibility 10.0 miles
Clouds Scattered Clouds 6500 ft
Overcast 8000 ft
Dew Point 46 °F
Humidity 54%
Rainfall 0.00 in
Snow Depth Not available.
UV 0 out of 12
Pollen 10.00 out of 12
Air Quality Not available.
Flu Activity Widespread
METAR KFWN 060853Z AUTO VRB05KT 10SM SCT065 OVC080 17/08 A3024 RMK AO2 SLP238 60000 T01720078 53004

More Conditions Fewer Conditions

Pressure 30.24 in
Visibility 10.0 miles
Clouds Scattered Clouds 6500 ft
Overcast 8000 ft
Dew Point 46 °F
Humidity 54%
Rainfall 0.00 in
Snow Depth Not available.
UV 0 out of 12
Pollen 10.00 out of 12
Air Quality Not available.
Flu Activity Widespread
METAR KFWN 060853Z AUTO VRB05KT 10SM SCT065 OVC080 17/08 A3024 RMK AO2 SLP238 60000 T01720078 53004

More Conditions Fewer Conditions

10-Day Weather Forecast

Almanac

Astronomy

May. 06, 2015 Rise Set
Actual Time
Civil Twilight
Nautical Twilight
Astronomical Twilight
Moon
Length of Visible Light
Length of Day
Tomorrow will be .
, % of the Moon is Illuminated

Today's Extremes

State Highs State Lows

Community

WunderPhotos

Upload Photos

1,818,859 photos uploaded!

WunderBlogs® & News

Nearby

Air Quality

  Air Quality AQ Index Pollutant
Not available.

Snow Depth

Station Depth Elevation

Earthquake Activity

City Distance Mag. Time & Date
Minimum magnitude displayed is 2.5.

Coastal Water Temperatures

Place Temperature

Stations

Nearby Weather Stations

Station Location Temp. Windchill Dew Point Humidity Wind Precip. Elev Updated Type